Goodville, PA (17528)

12:32 PM EDT on August 31, 2015 (GMT -0400)
Old Eastern School | | Change Station
CLOSE
Current Station
Personal Weather Station
Location: New Holland, PA
Elevation: 475 ft
Nearby Weather Stations

Elev 475 ft 40.09 °N, 76.06 °W | Updated 3 minutes ago

Partly Cloudy
Partly Cloudy
87.1 °F
Feels Like 84 °F
N
0.0
Wind Variable Wind from WSW
Gusts 0.0 mph

Today
High -- | Low -- °F
--% Chance of Precip.
Yesterday
High -- | Low -- °F
Precip. -- in
6:30 AM 7:37 PM
Waning Gibbous, 95% visible
Pressure 30.11 in
Visibility 10.0 miles
Clouds Clear
Heat Index 84 °F
Dew Point 32 °F
Humidity 13%
Rainfall Not available.
Snow Depth Not available.
UV 9 out of 12
Pollen 10.20 out of 12
Air Quality Not available.
Flu Activity Not available.
METAR KMQS 311615Z AUTO 28005KT 10SM CLR 28/21 A3011 RMK AO2
Pressure 30.11 in
Visibility 10.0 miles
Clouds Clear
Heat Index 84 °F
Dew Point 32 °F
Humidity 13%
Rainfall Not available.
Snow Depth Not available.
UV 9 out of 12
Pollen 10.20 out of 12
Air Quality Not available.
Flu Activity Not available.
METAR KMQS 311615Z AUTO 28005KT 10SM CLR 28/21 A3011 RMK AO2

10-Day Weather Forecast

×

Almanac

Astronomy

Aug. 31, 2015 Rise Set
Actual Time
Civil Twilight
Nautical Twilight
Astronomical Twilight
Moon
Length of Visible Light
Length of Day
Tomorrow will be .
, % of the Moon is Illuminated

Today's Extremes

State Highs State Lows

Community

WunderPhotos

Upload Photos

1,851,302 photos uploaded!

WunderBlogs® & News

Nearby

Air Quality

  Air Quality AQ Index Pollutant
Not available.

Snow Depth

Station Depth Elevation

Earthquake Activity

City Distance Mag. Time & Date
Minimum magnitude displayed is 2.5.

Coastal Water Temperatures

Place Temperature

Stations

Nearby Weather Stations

Station Location Temp. Windchill Dew Point Humidity Wind Precip. Elev Updated Type